createdAt,value
2023-05-14T00:00:25.117Z,67.85
2023-05-14T00:02:52.287Z,67.79
2023-05-14T00:05:19.199Z,67.79
2023-05-14T00:07:45.997Z,67.80
2023-05-14T00:10:12.914Z,67.84
2023-05-14T00:12:39.747Z,67.86
2023-05-14T00:15:07.290Z,67.83
2023-05-14T00:17:34.211Z,67.86
2023-05-14T00:20:01.330Z,67.92
2023-05-14T00:22:28.165Z,67.93
2023-05-14T00:24:55.040Z,67.88
2023-05-14T00:27:21.839Z,67.95
2023-05-14T00:29:48.663Z,67.98
2023-05-14T00:32:15.734Z,68.07
2023-05-14T00:34:42.671Z,67.98
2023-05-14T00:37:09.475Z,67.99
2023-05-14T00:39:36.436Z,67.94
2023-05-14T00:42:03.337Z,67.98
2023-05-14T00:44:30.197Z,67.91
2023-05-14T00:46:57.220Z,67.88
2023-05-14T00:49:24.566Z,67.90
2023-05-14T00:51:51.568Z,67.88
2023-05-14T00:54:19.768Z,67.87
2023-05-14T00:56:47.529Z,67.88
2023-05-14T00:59:14.402Z,67.89
2023-05-14T01:01:41.319Z,67.92
2023-05-14T01:04:10.576Z,67.97
2023-05-14T01:06:55.628Z,67.98
2023-05-14T01:09:29.764Z,68.04
2023-05-14T01:12:00.388Z,68.06
2023-05-14T01:14:44.708Z,68.08
2023-05-14T01:17:13.477Z,68.10
2023-05-14T01:19:42.950Z,68.11
2023-05-14T01:22:11.016Z,68.08
2023-05-14T01:24:38.058Z,68.12
2023-05-14T01:27:35.733Z,68.09
2023-05-14T01:30:05.514Z,68.09
2023-05-14T01:32:33.750Z,68.08
2023-05-14T01:35:01.848Z,68.14
2023-05-14T01:37:30.205Z,68.09
2023-05-14T01:39:57.771Z,68.09
2023-05-14T01:42:26.032Z,68.08
2023-05-14T01:44:53.128Z,68.09
2023-05-14T01:47:19.915Z,68.10
2023-05-14T01:49:46.767Z,68.03
2023-05-14T01:52:13.872Z,68.11
2023-05-14T01:54:40.719Z,68.10
2023-05-14T01:57:07.613Z,68.15
2023-05-14T01:59:34.395Z,68.19
2023-05-14T02:02:01.195Z,68.25
2023-05-14T02:04:28.104Z,68.25
2023-05-14T02:06:55.007Z,68.25
2023-05-14T02:09:21.907Z,68.21
2023-05-14T02:11:55.818Z,68.22
2023-05-14T02:14:22.675Z,68.25
2023-05-14T02:16:51.082Z,68.29
2023-05-14T02:19:20.450Z,68.33
2023-05-14T02:21:48.121Z,68.34
2023-05-14T02:24:14.956Z,68.24
2023-05-14T02:26:42.250Z,68.30
2023-05-14T02:29:09.138Z,68.31
2023-05-14T02:31:36.022Z,68.32
2023-05-14T02:34:04.388Z,68.32
2023-05-14T02:36:31.891Z,68.25
2023-05-14T02:38:59.903Z,68.38
2023-05-14T02:41:27.542Z,68.33
2023-05-14T02:43:54.925Z,68.39
2023-05-14T02:46:21.953Z,68.42
2023-05-14T02:48:48.831Z,68.46
2023-05-14T02:51:16.463Z,68.45
2023-05-14T02:53:43.379Z,68.44
2023-05-14T02:56:10.162Z,68.42
2023-05-14T02:58:37.053Z,68.48
2023-05-14T03:01:04.168Z,68.50
2023-05-14T03:03:31.956Z,68.58
2023-05-14T03:05:59.328Z,68.60
2023-05-14T03:08:26.189Z,68.57
2023-05-14T03:10:53.083Z,68.64
2023-05-14T03:13:20.857Z,68.65
2023-05-14T03:15:48.568Z,68.70
2023-05-14T03:18:15.564Z,68.70
2023-05-14T03:20:42.423Z,68.77
2023-05-14T03:23:09.342Z,68.70
2023-05-14T03:25:36.285Z,68.76
2023-05-14T03:28:04.134Z,68.80
2023-05-14T03:30:30.985Z,68.79
2023-05-14T03:32:58.091Z,68.76
2023-05-14T03:35:24.964Z,68.81
2023-05-14T03:37:53.113Z,68.84
2023-05-14T03:40:20.047Z,68.90
2023-05-14T03:42:46.873Z,68.89
2023-05-14T03:45:13.674Z,68.90
2023-05-14T03:47:40.605Z,68.94
2023-05-14T03:50:08.600Z,69.03
2023-05-14T03:52:35.650Z,68.96
2023-05-14T03:55:02.671Z,68.95
2023-05-14T03:57:29.472Z,68.94
2023-05-14T03:59:56.411Z,68.92
2023-05-14T04:02:23.573Z,68.97
2023-05-14T04:04:50.434Z,68.98
2023-05-14T04:07:17.319Z,69.03
2023-05-14T04:09:44.166Z,68.98
2023-05-14T04:12:11.049Z,68.99
2023-05-14T04:14:37.872Z,68.94
2023-05-14T04:17:04.808Z,68.91
2023-05-14T04:19:31.933Z,68.89
2023-05-14T04:21:58.829Z,68.99
2023-05-14T04:24:25.701Z,68.95
2023-05-14T04:26:52.482Z,68.99
2023-05-14T04:29:19.295Z,69.04
2023-05-14T04:31:46.532Z,68.92
2023-05-14T04:34:13.359Z,68.90
2023-05-14T04:36:40.318Z,68.95
2023-05-14T04:39:09.336Z,68.96
2023-05-14T04:41:36.823Z,68.87
2023-05-14T04:44:04.046Z,69.02
2023-05-14T04:46:31.244Z,69.02
2023-05-14T04:48:58.054Z,69.17
2023-05-14T04:51:24.874Z,69.15
2023-05-14T04:53:51.651Z,69.17
2023-05-14T04:56:18.414Z,69.25
2023-05-14T04:58:45.197Z,69.41
2023-05-14T05:01:12.299Z,69.37
2023-05-14T05:03:39.226Z,69.42
2023-05-14T05:06:06.261Z,69.44
2023-05-14T05:08:33.017Z,69.40
2023-05-14T05:10:59.774Z,69.43
2023-05-14T05:13:26.631Z,69.41
2023-05-14T05:15:53.442Z,69.37
2023-05-14T05:18:20.298Z,69.33
2023-05-14T05:20:47.227Z,69.44
2023-05-14T05:23:14.131Z,69.40
2023-05-14T05:25:41.288Z,69.36
2023-05-14T05:28:08.140Z,69.34
2023-05-14T05:30:35.135Z,69.38
2023-05-14T05:33:02.093Z,69.38
2023-05-14T05:35:29.446Z,69.40
2023-05-14T05:37:59.219Z,69.44
2023-05-14T05:40:28.165Z,69.37
2023-05-14T05:42:55.200Z,69.36
2023-05-14T05:45:22.099Z,69.37
2023-05-14T05:47:48.985Z,69.33
2023-05-14T05:50:16.000Z,69.39
2023-05-14T05:52:43.123Z,69.40
2023-05-14T05:55:10.168Z,69.44
2023-05-14T05:57:36.996Z,69.49
2023-05-14T06:00:13.092Z,69.45
2023-05-14T06:02:41.458Z,69.44
2023-05-14T06:05:09.718Z,69.52
2023-05-14T06:07:37.038Z,69.55
2023-05-14T06:10:05.052Z,69.52
2023-05-14T06:12:31.962Z,69.61
2023-05-14T06:14:58.860Z,69.56
2023-05-14T06:17:26.022Z,69.56
2023-05-14T06:19:53.398Z,69.56
2023-05-14T06:22:20.472Z,69.52
2023-05-14T06:24:48.068Z,69.55
2023-05-14T06:27:14.960Z,69.58
2023-05-14T06:29:41.810Z,69.56
2023-05-14T06:32:09.176Z,69.60
2023-05-14T06:34:36.101Z,69.55
2023-05-14T06:37:04.256Z,69.52
2023-05-14T06:39:31.212Z,69.52
2023-05-14T06:41:58.049Z,69.55
2023-05-14T06:44:24.900Z,69.54
2023-05-14T06:46:52.174Z,69.56
2023-05-14T06:49:19.271Z,69.59
2023-05-14T06:51:46.142Z,69.71
2023-05-14T06:54:13.254Z,69.63
2023-05-14T06:56:40.190Z,69.58
2023-05-14T06:59:07.125Z,69.56
2023-05-14T07:01:34.056Z,69.55
2023-05-14T07:04:01.019Z,69.57
2023-05-14T07:06:27.968Z,69.60
2023-05-14T07:08:54.817Z,69.62
2023-05-14T07:11:22.330Z,69.69
2023-05-14T07:13:49.200Z,69.71
2023-05-14T07:16:16.070Z,69.76
2023-05-14T07:18:43.874Z,69.70
2023-05-14T07:21:10.877Z,69.73
2023-05-14T07:23:38.497Z,69.76
2023-05-14T07:26:06.264Z,69.77
2023-05-14T07:28:33.620Z,69.83
2023-05-14T07:31:00.677Z,69.81
2023-05-14T07:33:27.642Z,69.77
2023-05-14T07:35:54.503Z,69.77
2023-05-14T07:38:21.613Z,69.86
2023-05-14T07:40:48.474Z,69.84
2023-05-14T07:43:15.339Z,69.95
2023-05-14T07:45:42.271Z,69.96
2023-05-14T07:48:09.273Z,70.02
2023-05-14T07:50:37.238Z,70.03
2023-05-14T07:53:04.171Z,70.06
2023-05-14T07:55:31.510Z,70.19
2023-05-14T07:57:58.253Z,70.19
2023-05-14T08:00:25.374Z,70.23
2023-05-14T08:02:52.774Z,70.19
2023-05-14T08:05:19.997Z,70.21
2023-05-14T08:07:46.908Z,70.18
2023-05-14T08:10:13.833Z,70.28
2023-05-14T08:12:40.791Z,70.37
2023-05-14T08:15:08.288Z,70.48
2023-05-14T08:17:35.375Z,70.47
2023-05-14T08:20:03.205Z,70.43
2023-05-14T08:22:30.118Z,70.52
2023-05-14T08:24:57.024Z,70.48
2023-05-14T08:27:23.901Z,70.55
2023-05-14T08:29:51.553Z,70.55
2023-05-14T08:32:23.453Z,70.66
2023-05-14T08:34:51.933Z,70.77
2023-05-14T08:37:19.026Z,70.83
2023-05-14T08:39:46.078Z,70.89
2023-05-14T08:42:13.875Z,70.90
2023-05-14T08:44:55.813Z,70.91
2023-05-14T08:47:23.968Z,70.86
2023-05-14T08:50:04.594Z,70.90
2023-05-14T08:52:31.960Z,70.95
2023-05-14T08:55:04.703Z,70.98
2023-05-14T08:57:33.027Z,70.97
2023-05-14T09:00:00.717Z,70.93
2023-05-14T09:02:31.757Z,71.01
2023-05-14T09:05:00.531Z,71.08
2023-05-14T09:07:27.976Z,71.12
2023-05-14T09:09:55.474Z,71.20
2023-05-14T09:12:22.888Z,71.15
2023-05-14T09:14:50.822Z,71.08
2023-05-14T09:17:18.994Z,71.11
2023-05-14T09:19:53.033Z,71.13
2023-05-14T09:22:20.941Z,71.13
2023-05-14T09:25:02.846Z,71.20
2023-05-14T09:27:31.807Z,71.21
2023-05-14T09:30:09.305Z,71.24
2023-05-14T09:32:40.728Z,71.29
2023-05-14T09:35:12.693Z,71.35
2023-05-14T09:37:42.675Z,71.45
2023-05-14T09:40:10.967Z,71.42
2023-05-14T09:42:38.272Z,71.41
2023-05-14T09:45:06.945Z,71.42
2023-05-14T09:47:33.958Z,71.46
2023-05-14T09:50:01.065Z,71.52
2023-05-14T09:52:28.003Z,71.42
2023-05-14T09:54:55.147Z,71.50
2023-05-14T09:57:22.056Z,71.56
2023-05-14T09:59:48.950Z,71.65
2023-05-14T10:02:26.971Z,71.64
2023-05-14T10:04:54.897Z,71.62
2023-05-14T10:07:29.752Z,71.55
2023-05-14T10:10:02.098Z,71.61
2023-05-14T10:12:34.472Z,71.63
2023-05-14T10:15:07.020Z,71.66
2023-05-14T10:17:37.502Z,71.66
2023-05-14T10:20:09.048Z,71.67
2023-05-14T10:22:36.164Z,71.63
2023-05-14T10:25:04.459Z,71.59
2023-05-14T10:27:32.103Z,71.63
2023-05-14T10:29:58.994Z,71.56
2023-05-14T10:32:26.589Z,71.54
2023-05-14T10:34:54.104Z,71.55
2023-05-14T10:37:26.553Z,71.61
2023-05-14T10:40:02.294Z,71.57
2023-05-14T10:42:35.462Z,71.55
2023-05-14T10:45:07.459Z,71.55
2023-05-14T10:47:36.336Z,71.55
2023-05-14T10:50:06.165Z,71.51
2023-05-14T10:52:35.112Z,71.50
2023-05-14T10:55:07.846Z,71.46
2023-05-14T10:57:36.799Z,71.54
2023-05-14T11:00:07.363Z,71.64
2023-05-14T11:02:39.856Z,71.68
2023-05-14T11:05:14.400Z,71.66
2023-05-14T11:07:42.189Z,71.63
2023-05-14T11:10:10.264Z,71.66
2023-05-14T11:12:42.604Z,71.75
2023-05-14T11:15:11.330Z,71.76
2023-05-14T11:17:40.531Z,71.71
2023-05-14T11:20:08.930Z,71.71
2023-05-14T11:22:37.067Z,71.69
2023-05-14T11:25:04.766Z,71.67
2023-05-14T11:27:36.230Z,71.62
2023-05-14T11:30:04.073Z,71.61
2023-05-14T11:32:34.204Z,71.68
2023-05-14T11:35:01.104Z,71.62
2023-05-14T11:37:27.971Z,71.71
2023-05-14T11:39:56.623Z,71.66
2023-05-14T11:42:23.961Z,71.65
2023-05-14T11:44:52.317Z,71.61
2023-05-14T11:47:21.467Z,71.57
2023-05-14T11:49:49.691Z,71.53
2023-05-14T11:52:19.631Z,71.52
2023-05-14T11:54:46.928Z,71.51
2023-05-14T11:57:19.656Z,71.46
2023-05-14T11:59:47.892Z,71.44
2023-05-14T12:02:17.662Z,71.40
2023-05-14T12:04:49.716Z,71.35
2023-05-14T12:07:16.773Z,71.34
2023-05-14T12:09:49.895Z,71.33
2023-05-14T12:12:21.106Z,71.34
2023-05-14T12:14:49.706Z,71.35
2023-05-14T12:17:18.614Z,71.33
2023-05-14T12:19:48.037Z,71.36
2023-05-14T12:22:18.552Z,71.35
2023-05-14T12:24:59.340Z,71.27
2023-05-14T12:27:27.452Z,71.29
2023-05-14T12:30:16.819Z,71.37
2023-05-14T12:32:46.848Z,71.39
2023-05-14T12:35:13.716Z,71.39
2023-05-14T12:37:40.792Z,71.34
2023-05-14T12:40:11.590Z,71.35
2023-05-14T12:42:38.532Z,71.33
2023-05-14T12:45:08.110Z,71.39
2023-05-14T12:47:36.445Z,71.40
2023-05-14T12:50:03.763Z,71.40
2023-05-14T12:52:37.912Z,71.51
2023-05-14T12:55:08.190Z,71.51
2023-05-14T12:57:35.774Z,71.54
2023-05-14T13:00:07.054Z,71.50
2023-05-14T13:02:42.873Z,71.48
2023-05-14T13:05:11.833Z,71.53
2023-05-14T13:07:39.004Z,71.54
2023-05-14T13:10:06.798Z,71.58
2023-05-14T13:12:33.808Z,71.53
2023-05-14T13:15:00.690Z,71.55
2023-05-14T13:17:27.662Z,71.53
2023-05-14T13:19:54.479Z,71.47
2023-05-14T13:22:21.529Z,71.43
2023-05-14T13:24:48.407Z,71.40
2023-05-14T13:27:15.329Z,71.39
2023-05-14T13:29:42.377Z,71.42
2023-05-14T13:32:09.197Z,71.40
2023-05-14T13:34:36.364Z,71.32
2023-05-14T13:37:04.053Z,71.28
2023-05-14T13:39:30.972Z,71.29
2023-05-14T13:41:57.981Z,71.24
2023-05-14T13:44:24.867Z,71.25
2023-05-14T13:46:51.945Z,71.29
2023-05-14T13:49:18.854Z,71.21
2023-05-14T13:51:45.865Z,71.25
2023-05-14T13:54:12.669Z,71.28
2023-05-14T13:56:39.460Z,71.25
2023-05-14T13:59:06.418Z,71.22
2023-05-14T14:01:33.445Z,71.21
2023-05-14T14:04:00.473Z,71.24
2023-05-14T14:06:30.050Z,71.21
2023-05-14T14:08:56.910Z,71.24
2023-05-14T14:11:23.703Z,71.29
2023-05-14T14:13:50.678Z,71.26
2023-05-14T14:16:17.551Z,71.26
2023-05-14T14:18:44.790Z,71.28
2023-05-14T14:21:12.055Z,71.25
2023-05-14T14:23:38.828Z,71.30
2023-05-14T14:26:05.655Z,71.37
2023-05-14T14:28:32.550Z,71.40
2023-05-14T14:30:59.372Z,71.39
2023-05-14T14:33:27.174Z,71.44
2023-05-14T14:35:54.121Z,71.46
2023-05-14T14:38:21.105Z,71.45
2023-05-14T14:40:48.067Z,71.47
2023-05-14T14:43:14.879Z,71.52
2023-05-14T14:45:42.949Z,71.56
2023-05-14T14:48:39.928Z,71.63
2023-05-14T14:51:08.197Z,71.59
2023-05-14T14:53:36.257Z,71.69
2023-05-14T14:56:03.505Z,71.74
2023-05-14T14:58:31.207Z,71.68
2023-05-14T15:00:58.643Z,71.67
2023-05-14T15:03:26.210Z,71.65
2023-05-14T15:05:53.910Z,71.74
2023-05-14T15:08:24.819Z,71.72
2023-05-14T15:10:51.698Z,71.79
2023-05-14T15:13:19.121Z,71.82
2023-05-14T15:15:45.993Z,71.87
2023-05-14T15:18:12.929Z,71.87
2023-05-14T15:20:40.014Z,71.84
2023-05-14T15:23:07.266Z,71.85
2023-05-14T15:25:34.119Z,71.85
2023-05-14T15:28:00.909Z,71.86
2023-05-14T15:30:27.934Z,71.83
2023-05-14T15:32:55.796Z,71.78
2023-05-14T15:35:23.020Z,71.77
2023-05-14T15:37:49.961Z,71.80
2023-05-14T15:40:16.771Z,71.87
2023-05-14T15:42:43.902Z,71.88
2023-05-14T15:45:12.522Z,71.88
2023-05-14T15:47:40.039Z,71.92
2023-05-14T15:50:07.789Z,72.00
2023-05-14T15:52:36.339Z,72.01
2023-05-14T15:55:04.490Z,72.00
2023-05-14T15:57:31.753Z,72.01
2023-05-14T15:59:58.518Z,72.03
2023-05-14T16:02:25.840Z,72.08
2023-05-14T16:04:52.652Z,72.03
2023-05-14T16:07:19.442Z,72.04
2023-05-14T16:09:46.301Z,72.03
2023-05-14T16:12:13.078Z,72.04
2023-05-14T16:14:41.997Z,72.05
2023-05-14T16:17:09.346Z,72.07
2023-05-14T16:19:36.121Z,72.14
2023-05-14T16:22:02.930Z,72.13
2023-05-14T16:24:29.804Z,72.09
2023-05-14T16:26:56.816Z,72.12
2023-05-14T16:29:23.605Z,72.04
2023-05-14T16:31:50.423Z,72.08
2023-05-14T16:34:17.280Z,72.03
2023-05-14T16:36:44.200Z,72.02
2023-05-14T16:39:11.605Z,72.02
2023-05-14T16:41:38.439Z,72.01
2023-05-14T16:44:05.266Z,72.04
2023-05-14T16:46:32.433Z,72.09
2023-05-14T16:48:59.392Z,72.10
2023-05-14T16:51:26.257Z,72.07
2023-05-14T16:53:54.638Z,72.06
2023-05-14T16:56:22.980Z,72.04
2023-05-14T16:58:50.019Z,72.01
2023-05-14T17:01:17.069Z,72.05
2023-05-14T17:03:45.774Z,72.07
2023-05-14T17:06:12.672Z,72.04
2023-05-14T17:08:39.478Z,71.99
2023-05-14T17:11:06.521Z,72.00
2023-05-14T17:13:34.098Z,71.96
2023-05-14T17:16:01.242Z,71.94
2023-05-14T17:18:28.603Z,72.01
2023-05-14T17:20:55.732Z,71.95
2023-05-14T17:23:22.638Z,71.95
2023-05-14T17:25:49.632Z,71.99
2023-05-14T17:28:16.435Z,71.99
2023-05-14T17:30:43.886Z,71.95
2023-05-14T17:33:11.757Z,71.97
2023-05-14T17:35:39.073Z,71.91
2023-05-14T17:38:05.905Z,71.90
2023-05-14T17:40:33.528Z,72.02
2023-05-14T17:43:01.001Z,72.02
2023-05-14T17:45:30.631Z,72.09
2023-05-14T17:48:01.111Z,72.03
2023-05-14T17:50:28.152Z,72.01
2023-05-14T17:52:56.764Z,71.96
2023-05-14T17:55:24.298Z,71.93
2023-05-14T17:57:51.357Z,71.92
2023-05-14T18:00:18.303Z,71.87
2023-05-14T18:02:45.235Z,71.87
2023-05-14T18:05:12.456Z,71.88
2023-05-14T18:07:40.184Z,71.85
2023-05-14T18:10:08.510Z,71.86
2023-05-14T18:12:36.233Z,71.84
2023-05-14T18:15:04.669Z,71.82
2023-05-14T18:17:32.056Z,71.81
2023-05-14T18:20:00.278Z,71.78
2023-05-14T18:22:28.042Z,71.81
2023-05-14T18:24:55.768Z,71.79
2023-05-14T18:27:24.122Z,71.80
2023-05-14T18:29:52.418Z,71.72
2023-05-14T18:32:21.561Z,71.68
2023-05-14T18:34:49.609Z,71.67
2023-05-14T18:37:17.484Z,71.65
2023-05-14T18:39:45.586Z,71.67
2023-05-14T18:42:13.945Z,71.67
2023-05-14T18:44:44.360Z,71.63
2023-05-14T18:47:12.964Z,71.66
2023-05-14T18:49:42.326Z,71.62
2023-05-14T18:52:11.329Z,71.62
2023-05-14T18:54:39.881Z,71.61
2023-05-14T18:57:08.915Z,71.55
2023-05-14T18:59:37.347Z,71.52
2023-05-14T19:02:05.721Z,71.53
2023-05-14T19:04:44.305Z,71.50
2023-05-14T19:07:19.790Z,71.48
2023-05-14T19:09:49.370Z,71.45
2023-05-14T19:12:17.637Z,71.47
2023-05-14T19:14:45.731Z,71.53
2023-05-14T19:17:14.061Z,71.58
2023-05-14T19:19:42.102Z,71.54
2023-05-14T19:22:11.517Z,71.55
2023-05-14T19:24:41.143Z,71.54
2023-05-14T19:27:09.419Z,71.55
2023-05-14T19:29:37.191Z,71.57
2023-05-14T19:32:06.004Z,71.60
2023-05-14T19:34:34.000Z,71.57
2023-05-14T19:37:01.835Z,71.51
2023-05-14T19:39:29.936Z,71.49
2023-05-14T19:41:57.715Z,71.50
2023-05-14T19:44:25.913Z,71.53
2023-05-14T19:46:54.051Z,71.49
2023-05-14T19:49:21.630Z,71.54
2023-05-14T19:51:49.350Z,71.55
2023-05-14T19:54:16.885Z,71.58
2023-05-14T19:56:44.662Z,71.73
2023-05-14T19:59:13.212Z,71.78
2023-05-14T20:01:41.582Z,71.82
2023-05-14T20:04:10.200Z,71.74
2023-05-14T20:06:38.604Z,71.80
2023-05-14T20:09:06.002Z,71.91
2023-05-14T20:11:33.153Z,71.96
2023-05-14T20:14:00.132Z,71.99
2023-05-14T20:16:28.759Z,71.89
2023-05-14T20:18:56.270Z,71.83
2023-05-14T20:21:23.390Z,71.88
2023-05-14T20:23:50.330Z,72.00
2023-05-14T20:26:17.375Z,72.06
2023-05-14T20:28:44.231Z,71.99
2023-05-14T20:31:11.279Z,71.94
2023-05-14T20:33:38.307Z,71.98
2023-05-14T20:36:05.390Z,71.99
2023-05-14T20:38:34.890Z,71.98
2023-05-14T20:41:01.842Z,71.93
2023-05-14T20:43:28.739Z,71.85
2023-05-14T20:45:57.612Z,71.74
2023-05-14T20:48:24.580Z,71.66
2023-05-14T20:50:51.446Z,71.69
2023-05-14T20:53:18.447Z,71.64
2023-05-14T20:55:45.405Z,71.64
2023-05-14T20:58:12.325Z,71.64
2023-05-14T21:00:39.391Z,71.66
2023-05-14T21:03:06.444Z,71.65
2023-05-14T21:05:33.598Z,71.71
2023-05-14T21:08:00.493Z,71.81
2023-05-14T21:10:27.462Z,71.82
2023-05-14T21:12:54.660Z,71.72
2023-05-14T21:15:21.656Z,71.67
2023-05-14T21:17:48.607Z,71.64
2023-05-14T21:20:15.740Z,71.61
2023-05-14T21:22:42.566Z,71.54
2023-05-14T21:25:10.131Z,71.55
2023-05-14T21:27:37.321Z,71.55
2023-05-14T21:30:04.543Z,71.55
2023-05-14T21:32:31.424Z,71.54
2023-05-14T21:34:58.340Z,71.55
2023-05-14T21:37:25.171Z,71.56
2023-05-14T21:39:51.997Z,71.57
2023-05-14T21:42:21.000Z,71.57
2023-05-14T21:44:47.901Z,71.53
2023-05-14T21:47:15.807Z,71.47
2023-05-14T21:49:43.130Z,71.54
2023-05-14T21:52:09.902Z,71.49
2023-05-14T21:54:36.687Z,71.47
2023-05-14T21:57:04.782Z,71.46
2023-05-14T21:59:31.556Z,71.43
2023-05-14T22:04:28.310Z,71.41
2023-05-14T22:06:55.083Z,71.36
2023-05-14T22:09:21.944Z,71.36
2023-05-14T22:11:48.777Z,71.35
2023-05-14T22:14:15.637Z,71.37
2023-05-14T22:16:42.564Z,71.32
2023-05-14T22:19:09.584Z,71.29
2023-05-14T22:21:36.711Z,71.29
2023-05-14T22:24:03.705Z,71.32
2023-05-14T22:26:30.610Z,71.38
2023-05-14T22:28:57.775Z,71.50
2023-05-14T22:31:25.023Z,71.52
2023-05-14T22:33:52.180Z,71.52
2023-05-14T22:36:18.981Z,71.46
2023-05-14T22:38:45.809Z,71.47
2023-05-14T22:41:12.700Z,71.46
2023-05-14T22:43:39.554Z,71.51
2023-05-14T22:46:06.841Z,71.54
2023-05-14T22:48:33.766Z,71.58
2023-05-14T22:51:00.550Z,71.57
2023-05-14T22:53:27.427Z,71.77
2023-05-14T22:55:54.677Z,71.79
2023-05-14T22:58:21.584Z,71.84
2023-05-14T23:00:48.459Z,71.81
2023-05-14T23:03:15.411Z,71.73
2023-05-14T23:05:42.308Z,71.80
2023-05-14T23:08:09.262Z,71.78
2023-05-14T23:10:36.139Z,71.76
2023-05-14T23:13:04.156Z,71.74
2023-05-14T23:15:31.344Z,71.69
2023-05-14T23:17:58.546Z,71.67
2023-05-14T23:20:25.578Z,71.58
2023-05-14T23:22:54.158Z,71.57
2023-05-14T23:25:21.047Z,71.52
2023-05-14T23:27:48.272Z,71.53
2023-05-14T23:30:15.283Z,71.44
2023-05-14T23:32:42.210Z,71.38
2023-05-14T23:35:09.624Z,71.36
2023-05-14T23:37:41.779Z,71.31
2023-05-14T23:40:09.717Z,71.28
2023-05-14T23:42:36.586Z,71.29
2023-05-14T23:45:03.694Z,71.28
2023-05-14T23:47:30.670Z,71.31
2023-05-14T23:49:57.576Z,71.22
2023-05-14T23:52:24.474Z,71.26
2023-05-14T23:54:51.319Z,71.27
2023-05-14T23:57:18.295Z,71.19
2023-05-14T23:59:45.107Z,71.16
